createdAt,value
2018-08-21T00:00:32.411Z,0.00
2018-08-21T00:01:32.278Z,0.00
2018-08-21T00:02:32.278Z,0.00
2018-08-21T00:03:32.305Z,0.00
2018-08-21T00:04:32.324Z,0.00
2018-08-21T00:05:32.496Z,0.00
2018-08-21T00:06:32.334Z,0.00
2018-08-21T00:07:32.349Z,0.00
2018-08-21T00:08:32.377Z,0.00
2018-08-21T00:09:32.373Z,0.00
2018-08-21T00:10:32.516Z,0.00
2018-08-21T00:11:32.431Z,0.00
2018-08-21T00:12:32.441Z,0.00
2018-08-21T00:13:32.458Z,0.00
2018-08-21T00:14:32.471Z,0.00
2018-08-21T00:15:32.645Z,0.00
2018-08-21T00:16:32.487Z,0.00
2018-08-21T00:17:32.523Z,0.00
2018-08-21T00:18:32.532Z,0.00
2018-08-21T00:19:32.548Z,0.00
2018-08-21T00:20:32.710Z,0.00
2018-08-21T00:21:32.779Z,0.00
2018-08-21T00:22:32.595Z,0.00
2018-08-21T00:23:32.615Z,0.00
2018-08-21T00:24:32.619Z,0.00
2018-08-21T00:25:32.784Z,0.00
2018-08-21T00:26:32.655Z,0.00
2018-08-21T00:27:32.672Z,0.00
2018-08-21T00:28:32.686Z,0.00
2018-08-21T00:29:32.679Z,0.00
2018-08-21T00:30:32.868Z,0.00
2018-08-21T00:31:32.732Z,0.00
2018-08-21T00:32:32.740Z,0.00
2018-08-21T00:33:32.768Z,0.00
2018-08-21T00:34:32.780Z,0.00
2018-08-21T00:35:32.784Z,0.00
2018-08-21T00:36:32.880Z,0.00
2018-08-21T00:37:32.821Z,0.00
2018-08-21T00:38:32.835Z,0.00
2018-08-21T00:39:32.854Z,0.00
2018-08-21T00:40:32.860Z,0.00
2018-08-21T00:41:33.030Z,0.00
2018-08-21T00:42:32.888Z,0.00
2018-08-21T00:43:32.906Z,0.00
2018-08-21T00:44:32.905Z,0.00
2018-08-21T00:45:32.935Z,0.00
2018-08-21T00:46:33.101Z,0.00
2018-08-21T00:47:32.968Z,0.00
2018-08-21T00:48:32.978Z,0.00
2018-08-21T00:49:32.997Z,0.00
2018-08-21T00:50:33.016Z,0.00
2018-08-21T00:51:33.280Z,0.00
2018-08-21T00:52:33.047Z,0.00
2018-08-21T00:53:33.058Z,0.00
2018-08-21T00:54:33.070Z,0.00
2018-08-21T00:55:33.091Z,0.00
2018-08-21T00:56:33.248Z,0.00
2018-08-21T00:57:33.093Z,0.00
2018-08-21T00:58:33.137Z,0.00
2018-08-21T00:59:33.139Z,0.00
2018-08-21T01:00:33.164Z,0.00
2018-08-21T01:01:33.320Z,0.00
2018-08-21T01:02:33.188Z,0.00
2018-08-21T01:03:33.201Z,0.00
2018-08-21T01:04:33.231Z,0.00
2018-08-21T01:05:33.237Z,0.00
2018-08-21T01:06:33.501Z,0.00
2018-08-21T01:07:33.260Z,0.00
2018-08-21T01:08:33.272Z,0.00
2018-08-21T01:09:33.291Z,0.00
2018-08-21T01:10:33.280Z,0.00
2018-08-21T01:11:33.472Z,0.00
2018-08-21T01:12:33.333Z,0.00
2018-08-21T01:13:33.345Z,0.00
2018-08-21T01:14:33.341Z,0.00
2018-08-21T01:15:33.374Z,0.00
2018-08-21T01:16:33.638Z,0.00
2018-08-21T01:17:33.389Z,0.00
2018-08-21T01:18:33.420Z,0.00
2018-08-21T01:19:33.431Z,0.00
2018-08-21T01:20:33.446Z,0.00
2018-08-21T01:21:33.717Z,0.00
2018-08-21T01:22:33.487Z,0.00
2018-08-21T01:23:33.495Z,0.00
2018-08-21T01:24:33.485Z,0.00
2018-08-21T01:25:33.502Z,0.00
2018-08-21T01:26:33.650Z,0.00
2018-08-21T01:27:33.553Z,0.00
2018-08-21T01:28:33.563Z,0.00
2018-08-21T01:29:33.577Z,0.00
2018-08-21T01:30:33.592Z,0.00
2018-08-21T01:31:33.710Z,0.00
2018-08-21T01:32:33.626Z,0.00
2018-08-21T01:33:33.632Z,0.00
2018-08-21T01:34:33.657Z,0.00
2018-08-21T01:35:33.673Z,0.00
2018-08-21T01:36:33.788Z,0.00
2018-08-21T01:37:33.692Z,0.00
2018-08-21T01:38:33.704Z,0.00
2018-08-21T01:39:33.718Z,0.00
2018-08-21T01:40:33.733Z,0.00
2018-08-21T01:41:33.848Z,0.00
2018-08-21T01:42:33.780Z,0.00
2018-08-21T01:43:33.777Z,0.00
2018-08-21T01:44:33.778Z,0.00
2018-08-21T01:45:33.806Z,0.00
2018-08-21T01:46:33.916Z,0.00
2018-08-21T01:47:33.831Z,0.00
2018-08-21T01:48:33.856Z,0.00
2018-08-21T01:49:33.862Z,0.00
2018-08-21T01:50:33.874Z,0.00
2018-08-21T01:51:34.345Z,0.00
2018-08-21T01:52:33.887Z,0.00
2018-08-21T01:53:33.900Z,0.00
2018-08-21T01:54:34.135Z,0.00
2018-08-21T01:55:33.951Z,0.00
2018-08-21T01:56:34.063Z,0.00
2018-08-21T01:57:33.977Z,0.00
2018-08-21T01:58:33.992Z,0.00
2018-08-21T01:59:34.000Z,0.00
2018-08-21T02:00:33.997Z,0.00
2018-08-21T02:01:34.163Z,0.00
2018-08-21T02:02:34.027Z,0.00
2018-08-21T02:03:34.062Z,0.00
2018-08-21T02:04:34.080Z,0.00
2018-08-21T02:05:34.093Z,0.00
2018-08-21T02:06:34.203Z,0.00
2018-08-21T02:07:34.095Z,0.00
2018-08-21T02:08:34.169Z,0.00
2018-08-21T02:09:34.147Z,0.00
2018-08-21T02:10:34.157Z,0.00
2018-08-21T02:11:34.257Z,0.00
2018-08-21T02:12:34.185Z,0.00
2018-08-21T02:13:34.234Z,0.00
2018-08-21T02:14:34.192Z,0.00
2018-08-21T02:15:34.227Z,0.00
2018-08-21T02:16:34.347Z,0.00
2018-08-21T02:17:34.256Z,0.00
2018-08-21T02:18:34.491Z,0.00
2018-08-21T02:19:34.282Z,0.00
2018-08-21T02:20:34.291Z,0.00
2018-08-21T02:21:34.405Z,0.00
2018-08-21T02:22:34.326Z,0.00
2018-08-21T02:23:34.353Z,0.00
2018-08-21T02:24:34.352Z,0.00
2018-08-21T02:25:34.366Z,0.00
2018-08-21T02:26:34.523Z,0.00
2018-08-21T02:27:34.393Z,0.00
2018-08-21T02:28:34.409Z,0.00
2018-08-21T02:29:34.422Z,0.00
2018-08-21T02:30:34.435Z,0.00
2018-08-21T02:31:34.547Z,0.00
2018-08-21T02:32:34.462Z,0.00
2018-08-21T02:33:34.470Z,0.00
2018-08-21T02:34:34.497Z,0.00
2018-08-21T02:35:34.502Z,0.00
2018-08-21T02:36:34.621Z,0.00
2018-08-21T02:37:34.529Z,0.00
2018-08-21T02:38:34.541Z,0.00
2018-08-21T02:39:34.554Z,0.00
2018-08-21T02:40:34.567Z,0.00
2018-08-21T02:41:34.666Z,0.00
2018-08-21T02:42:34.596Z,0.00
2018-08-21T02:43:34.615Z,0.00
2018-08-21T02:44:34.658Z,0.00
2018-08-21T02:45:34.623Z,0.00
2018-08-21T02:46:34.799Z,0.00
2018-08-21T02:47:34.667Z,0.00
2018-08-21T02:48:34.665Z,0.00
2018-08-21T02:49:34.694Z,0.00
2018-08-21T02:50:34.686Z,0.00
2018-08-21T02:51:34.698Z,0.00
2018-08-21T02:52:34.830Z,0.00
2018-08-21T02:53:34.743Z,0.00
2018-08-21T02:54:34.759Z,0.00
2018-08-21T02:55:34.774Z,0.00
2018-08-21T02:56:34.787Z,0.00
2018-08-21T02:57:34.954Z,0.00
2018-08-21T02:58:34.809Z,0.00
2018-08-21T02:59:34.838Z,0.00
2018-08-21T03:00:35.459Z,0.00
2018-08-21T03:01:34.848Z,0.00
2018-08-21T03:02:34.963Z,0.00
2018-08-21T03:03:34.879Z,0.00
2018-08-21T03:04:34.892Z,0.00
2018-08-21T03:05:34.913Z,0.00
2018-08-21T03:06:34.919Z,0.00
2018-08-21T03:07:35.049Z,0.00
2018-08-21T03:08:34.934Z,0.00
2018-08-21T03:09:34.943Z,0.00
2018-08-21T03:10:34.973Z,0.00
2018-08-21T03:11:34.983Z,0.00
2018-08-21T03:12:35.097Z,0.00
2018-08-21T03:13:35.010Z,0.00
2018-08-21T03:14:35.033Z,0.00
2018-08-21T03:15:35.035Z,0.00
2018-08-21T03:16:35.055Z,0.00
2018-08-21T03:17:35.165Z,0.00
2018-08-21T03:18:35.078Z,0.00
2018-08-21T03:19:35.091Z,0.00
2018-08-21T03:20:35.106Z,0.00
2018-08-21T03:21:35.110Z,0.00
2018-08-21T03:22:35.294Z,0.00
2018-08-21T03:23:35.145Z,0.00
2018-08-21T03:24:35.157Z,0.00
2018-08-21T03:25:35.170Z,0.00
2018-08-21T03:26:35.186Z,0.00
2018-08-21T03:27:35.280Z,0.00
2018-08-21T03:28:35.195Z,0.00
2018-08-21T03:29:35.227Z,0.00
2018-08-21T03:30:35.219Z,0.00
2018-08-21T03:31:35.251Z,0.00
2018-08-21T03:32:35.368Z,0.00
2018-08-21T03:33:35.280Z,0.00
2018-08-21T03:34:35.294Z,0.00
2018-08-21T03:35:35.309Z,0.00
2018-08-21T03:36:35.315Z,0.00
2018-08-21T03:37:35.437Z,0.00
2018-08-21T03:38:35.341Z,0.00
2018-08-21T03:39:35.362Z,0.00
2018-08-21T03:40:35.375Z,0.00
2018-08-21T03:41:35.385Z,0.00
2018-08-21T03:42:35.532Z,0.00
2018-08-21T03:43:35.409Z,0.00
2018-08-21T03:44:35.423Z,0.00
2018-08-21T03:45:35.436Z,0.00
2018-08-21T03:46:35.448Z,0.00
2018-08-21T03:47:35.617Z,0.00
2018-08-21T03:48:35.473Z,0.00
2018-08-21T03:49:35.493Z,0.00
2018-08-21T03:50:35.499Z,0.00
2018-08-21T03:51:35.510Z,0.00
2018-08-21T03:52:35.680Z,0.00
2018-08-21T03:53:35.548Z,0.00
2018-08-21T03:54:35.555Z,0.00
2018-08-21T03:55:35.554Z,0.00
2018-08-21T03:56:35.578Z,0.00
2018-08-21T03:57:35.741Z,0.00
2018-08-21T03:58:36.144Z,0.00
2018-08-21T03:59:35.618Z,0.00
2018-08-21T04:00:35.725Z,0.00
2018-08-21T04:01:35.654Z,0.00
2018-08-21T04:02:35.815Z,0.00
2018-08-21T04:03:35.685Z,0.00
2018-08-21T04:04:35.672Z,0.00
2018-08-21T04:05:35.701Z,0.00
2018-08-21T04:06:35.716Z,0.00
2018-08-21T04:07:35.729Z,0.00
2018-08-21T04:08:35.893Z,0.00
2018-08-21T04:09:35.752Z,0.00
2018-08-21T04:10:35.743Z,0.00
2018-08-21T04:11:35.774Z,0.00
2018-08-21T04:12:35.786Z,0.00
2018-08-21T04:13:35.952Z,0.00
2018-08-21T04:14:35.818Z,0.00
2018-08-21T04:15:35.834Z,0.00
2018-08-21T04:16:35.841Z,0.00
2018-08-21T04:17:35.860Z,0.00
2018-08-21T04:18:36.015Z,0.00
2018-08-21T04:19:35.891Z,0.00
2018-08-21T04:20:35.892Z,0.00
2018-08-21T04:21:35.887Z,0.00
2018-08-21T04:22:35.925Z,0.00
2018-08-21T04:23:36.089Z,0.00
2018-08-21T04:24:36.039Z,0.00
2018-08-21T04:25:35.959Z,0.00
2018-08-21T04:26:35.971Z,0.00
2018-08-21T04:27:35.967Z,0.00
2018-08-21T04:28:36.248Z,0.00
2018-08-21T04:29:36.008Z,0.00
2018-08-21T04:30:36.028Z,0.00
2018-08-21T04:31:36.035Z,0.00
2018-08-21T04:32:36.052Z,0.00
2018-08-21T04:33:36.210Z,0.00
2018-08-21T04:34:36.078Z,0.00
2018-08-21T04:35:36.084Z,0.00
2018-08-21T04:36:36.100Z,0.00
2018-08-21T04:37:36.116Z,0.00
2018-08-21T04:38:36.272Z,0.00
2018-08-21T04:39:36.137Z,0.00
2018-08-21T04:40:36.134Z,0.00
2018-08-21T04:41:36.151Z,0.00
2018-08-21T04:42:36.180Z,0.00
2018-08-21T04:43:36.434Z,0.00
2018-08-21T04:44:36.200Z,0.00
2018-08-21T04:45:36.214Z,0.00
2018-08-21T04:46:36.211Z,0.00
2018-08-21T04:47:36.233Z,0.00
2018-08-21T04:48:36.407Z,0.00
2018-08-21T04:49:36.266Z,0.00
2018-08-21T04:50:36.278Z,0.00
2018-08-21T04:51:36.286Z,0.00
2018-08-21T04:52:36.300Z,0.00
2018-08-21T04:53:36.464Z,0.00
2018-08-21T04:54:36.331Z,0.00
2018-08-21T04:55:36.339Z,0.00
2018-08-21T04:56:36.347Z,0.00
2018-08-21T04:57:36.368Z,0.00
2018-08-21T04:58:36.586Z,0.00
2018-08-21T04:59:36.387Z,0.00
2018-08-21T05:00:36.383Z,0.00
2018-08-21T05:01:36.417Z,0.00
2018-08-21T05:02:36.428Z,0.00
2018-08-21T05:03:36.591Z,0.00
2018-08-21T05:04:36.453Z,0.00
2018-08-21T05:05:36.571Z,0.00
2018-08-21T05:06:36.477Z,0.00
2018-08-21T05:07:36.496Z,0.00
2018-08-21T05:08:36.646Z,0.00
2018-08-21T05:09:36.509Z,0.00
2018-08-21T05:10:36.523Z,0.00
2018-08-21T05:11:36.533Z,0.00
2018-08-21T05:12:36.563Z,0.00
2018-08-21T05:13:36.713Z,0.00
2018-08-21T05:14:36.575Z,0.00
2018-08-21T05:15:36.589Z,0.00
2018-08-21T05:16:36.601Z,0.00
2018-08-21T05:17:36.612Z,0.00
2018-08-21T05:18:36.778Z,0.00
2018-08-21T05:19:36.632Z,0.00
2018-08-21T05:20:36.633Z,0.00
2018-08-21T05:21:36.662Z,0.00
2018-08-21T05:22:36.860Z,0.00
2018-08-21T05:23:36.686Z,0.00
2018-08-21T05:24:36.849Z,0.00
2018-08-21T05:25:36.714Z,0.00
2018-08-21T05:26:36.727Z,0.00
2018-08-21T05:27:36.731Z,0.00
2018-08-21T05:28:36.767Z,0.00
2018-08-21T05:29:37.014Z,0.00
2018-08-21T05:30:36.769Z,0.00
2018-08-21T05:31:36.782Z,0.00
2018-08-21T05:32:36.998Z,0.00
2018-08-21T05:33:36.821Z,0.00
2018-08-21T05:34:36.973Z,0.00
2018-08-21T05:35:36.838Z,0.00
2018-08-21T05:36:36.845Z,0.00
2018-08-21T05:37:36.859Z,0.00
2018-08-21T05:38:36.874Z,0.00
2018-08-21T05:39:37.036Z,0.00
2018-08-21T05:40:36.898Z,0.00
2018-08-21T05:41:36.906Z,0.00
2018-08-21T05:42:36.918Z,0.00
2018-08-21T05:43:36.969Z,0.00
2018-08-21T05:44:37.197Z,0.00
2018-08-21T05:45:36.953Z,0.00
2018-08-21T05:46:36.979Z,0.00
2018-08-21T05:47:37.165Z,0.00
2018-08-21T05:48:36.998Z,0.00
2018-08-21T05:49:37.152Z,0.00
2018-08-21T05:50:37.017Z,0.00
2018-08-21T05:51:37.028Z,0.00
2018-08-21T05:52:37.042Z,0.00
2018-08-21T05:53:37.043Z,0.00
2018-08-21T05:54:37.221Z,0.00
2018-08-21T05:55:37.287Z,0.00
2018-08-21T05:56:37.093Z,0.00
2018-08-21T05:57:37.106Z,0.00
2018-08-21T05:58:37.121Z,0.00
2018-08-21T05:59:37.279Z,0.00
2018-08-21T06:00:37.128Z,0.00
2018-08-21T06:01:37.151Z,0.00
2018-08-21T06:02:37.162Z,0.00
2018-08-21T06:03:37.179Z,0.00
2018-08-21T06:04:37.296Z,0.00
2018-08-21T06:05:37.201Z,0.00
2018-08-21T06:06:37.199Z,0.00
2018-08-21T06:07:37.227Z,0.00
2018-08-21T06:08:37.235Z,0.00
2018-08-21T06:09:37.380Z,0.00
2018-08-21T06:10:37.246Z,0.00
2018-08-21T06:11:37.272Z,0.00
2018-08-21T06:12:37.273Z,0.00
2018-08-21T06:13:37.322Z,0.00
2018-08-21T06:14:37.413Z,0.00
2018-08-21T06:15:37.321Z,0.00
2018-08-21T06:16:37.345Z,0.00
2018-08-21T06:17:37.350Z,0.00
2018-08-21T06:18:37.362Z,0.00
2018-08-21T06:19:37.476Z,0.00
2018-08-21T06:20:37.382Z,0.00
2018-08-21T06:21:37.393Z,0.00
2018-08-21T06:22:37.391Z,0.00
2018-08-21T06:23:37.424Z,0.00
2018-08-21T06:24:37.566Z,0.00
2018-08-21T06:25:37.448Z,0.00
2018-08-21T06:26:37.466Z,0.00
2018-08-21T06:27:37.473Z,0.00
2018-08-21T06:28:37.482Z,0.00
2018-08-21T06:29:37.654Z,0.00
2018-08-21T06:30:37.511Z,0.00
2018-08-21T06:31:37.517Z,0.00
2018-08-21T06:32:37.533Z,0.00
2018-08-21T06:33:37.556Z,0.00
2018-08-21T06:34:37.705Z,0.00
2018-08-21T06:35:37.570Z,0.00
2018-08-21T06:36:37.578Z,0.00
2018-08-21T06:37:37.597Z,0.00
2018-08-21T06:38:37.588Z,0.00
2018-08-21T06:39:37.794Z,0.00
2018-08-21T06:40:37.809Z,0.00
2018-08-21T06:41:37.646Z,0.00
2018-08-21T06:42:37.648Z,0.00
2018-08-21T06:43:37.662Z,0.00
2018-08-21T06:44:37.688Z,0.00
2018-08-21T06:45:37.937Z,0.00
2018-08-21T06:46:37.869Z,0.00
2018-08-21T06:47:37.700Z,0.00
2018-08-21T06:48:37.714Z,0.00
2018-08-21T06:49:37.737Z,0.00
2018-08-21T06:50:38.013Z,0.00
2018-08-21T06:51:37.766Z,0.00
2018-08-21T06:52:37.776Z,0.00
2018-08-21T06:53:37.786Z,0.00
2018-08-21T06:54:37.796Z,0.00
2018-08-21T06:55:37.812Z,0.00
2018-08-21T06:56:37.981Z,0.00
2018-08-21T06:57:37.830Z,0.00
2018-08-21T06:58:37.845Z,0.00
2018-08-21T06:59:37.846Z,0.00
2018-08-21T07:00:37.873Z,0.00
2018-08-21T07:01:38.033Z,0.00
2018-08-21T07:02:37.897Z,0.00
2018-08-21T07:03:37.890Z,0.00
2018-08-21T07:04:37.916Z,0.00
2018-08-21T07:05:37.933Z,0.00
2018-08-21T07:06:38.095Z,0.00
2018-08-21T07:07:37.960Z,0.00
2018-08-21T07:08:37.973Z,0.00
2018-08-21T07:09:37.981Z,0.00
2018-08-21T07:10:38.001Z,0.00
2018-08-21T07:11:38.247Z,0.00
2018-08-21T07:12:38.013Z,0.00
2018-08-21T07:13:38.012Z,0.00
2018-08-21T07:14:38.043Z,0.00
2018-08-21T07:15:38.053Z,0.00
2018-08-21T07:16:38.298Z,0.00
2018-08-21T07:17:38.064Z,0.00
2018-08-21T07:18:38.091Z,0.00
2018-08-21T07:19:38.100Z,0.00
2018-08-21T07:20:38.115Z,0.00
2018-08-21T07:21:38.258Z,0.00
2018-08-21T07:22:38.135Z,0.00
2018-08-21T07:23:38.153Z,0.00
2018-08-21T07:24:38.157Z,0.00
2018-08-21T07:25:38.163Z,0.00
2018-08-21T07:26:38.313Z,0.00
2018-08-21T07:27:38.198Z,0.00
2018-08-21T07:28:38.214Z,0.00
2018-08-21T07:29:38.217Z,0.00
2018-08-21T07:30:38.244Z,0.00
2018-08-21T07:31:38.395Z,0.00
2018-08-21T07:32:38.255Z,0.00
2018-08-21T07:33:38.271Z,0.00
2018-08-21T07:34:38.288Z,0.00
2018-08-21T07:35:38.309Z,0.00
2018-08-21T07:36:38.462Z,0.00
2018-08-21T07:37:38.300Z,0.00
2018-08-21T07:38:38.329Z,0.00
2018-08-21T07:39:38.344Z,0.00
2018-08-21T07:40:38.354Z,0.00
2018-08-21T07:41:38.519Z,0.00
2018-08-21T07:42:38.379Z,0.00
2018-08-21T07:43:38.390Z,0.00
2018-08-21T07:44:38.410Z,0.00
2018-08-21T07:45:38.415Z,0.00
2018-08-21T07:46:38.582Z,0.00
2018-08-21T07:47:38.437Z,0.00
2018-08-21T07:48:38.459Z,0.00
2018-08-21T07:49:38.469Z,0.00
2018-08-21T07:50:38.474Z,0.00
2018-08-21T07:51:38.739Z,0.00
2018-08-21T07:52:38.510Z,0.00
2018-08-21T07:53:38.490Z,0.00
2018-08-21T07:54:38.526Z,0.00
2018-08-21T07:55:38.543Z,0.00
2018-08-21T07:56:38.549Z,0.00
2018-08-21T07:57:38.688Z,0.00
2018-08-21T07:58:38.569Z,0.00
2018-08-21T07:59:38.571Z,0.00
2018-08-21T08:00:38.596Z,0.00
2018-08-21T08:01:38.593Z,0.00
2018-08-21T08:02:38.623Z,0.00
2018-08-21T08:03:38.787Z,0.00
2018-08-21T08:04:38.628Z,0.00
2018-08-21T08:05:38.637Z,0.00
2018-08-21T08:06:38.663Z,0.00
2018-08-21T08:07:38.682Z,0.00
2018-08-21T08:08:38.689Z,0.00
2018-08-21T08:09:38.807Z,0.00
2018-08-21T08:10:38.713Z,0.00
2018-08-21T08:11:38.724Z,0.00
2018-08-21T08:12:38.748Z,0.00
2018-08-21T08:13:38.830Z,0.00
2018-08-21T08:14:38.916Z,0.00
2018-08-21T08:15:38.759Z,0.00
2018-08-21T08:16:38.789Z,0.00
2018-08-21T08:17:38.802Z,0.00
2018-08-21T08:18:38.794Z,0.00
2018-08-21T08:19:39.076Z,0.00
2018-08-21T08:20:38.839Z,0.00
2018-08-21T08:21:38.853Z,0.00
2018-08-21T08:22:38.860Z,0.00
2018-08-21T08:23:38.869Z,0.00
2018-08-21T08:24:39.030Z,0.00
2018-08-21T08:25:38.892Z,0.00
2018-08-21T08:26:38.909Z,0.00
2018-08-21T08:27:38.917Z,0.00
2018-08-21T08:28:38.935Z,0.00
2018-08-21T08:29:39.094Z,0.00
2018-08-21T08:30:38.961Z,0.00
2018-08-21T08:31:38.969Z,0.00
2018-08-21T08:32:38.981Z,0.00
2018-08-21T08:33:38.991Z,0.00
2018-08-21T08:34:39.105Z,0.00
2018-08-21T08:35:39.000Z,0.00
2018-08-21T08:36:39.030Z,0.00
2018-08-21T08:37:39.042Z,0.00
2018-08-21T08:38:39.054Z,0.00
2018-08-21T08:39:39.211Z,0.00
2018-08-21T08:40:39.075Z,0.00
2018-08-21T08:41:39.187Z,0.00
2018-08-21T08:42:39.095Z,0.00
2018-08-21T08:43:39.110Z,0.00
2018-08-21T08:44:39.278Z,0.00
2018-08-21T08:45:39.120Z,0.00
2018-08-21T08:46:39.145Z,0.00
2018-08-21T08:47:39.254Z,0.00
2018-08-21T08:48:39.172Z,0.00
2018-08-21T08:49:39.328Z,0.00
2018-08-21T08:50:39.196Z,0.00
2018-08-21T08:51:39.187Z,0.00
2018-08-21T08:52:39.224Z,0.00
2018-08-21T08:53:39.232Z,0.00
2018-08-21T08:54:39.399Z,0.00
2018-08-21T08:55:39.257Z,0.00
2018-08-21T08:56:39.272Z,0.00
2018-08-21T08:57:39.290Z,0.00
2018-08-21T08:58:39.346Z,0.00
2018-08-21T08:59:39.434Z,0.00
2018-08-21T09:00:39.326Z,0.00
2018-08-21T09:01:39.331Z,0.00
2018-08-21T09:02:39.342Z,0.00
2018-08-21T09:03:39.348Z,0.00
2018-08-21T09:04:39.512Z,0.00
2018-08-21T09:05:39.361Z,0.00
2018-08-21T09:06:39.394Z,0.00
2018-08-21T09:07:39.404Z,0.00
2018-08-21T09:08:39.409Z,0.00
2018-08-21T09:09:39.571Z,0.00
2018-08-21T09:10:39.430Z,0.00
2018-08-21T09:11:39.453Z,0.00
2018-08-21T09:12:39.461Z,0.00
2018-08-21T09:13:39.458Z,0.00
2018-08-21T09:14:39.836Z,0.00
2018-08-21T09:15:39.506Z,0.00
2018-08-21T09:16:39.509Z,0.00
2018-08-21T09:17:39.706Z,0.00
2018-08-21T09:18:39.531Z,0.00
2018-08-21T09:19:39.541Z,0.00
2018-08-21T09:20:39.709Z,5.63
2018-08-21T09:21:39.565Z,5.63
2018-08-21T09:22:39.582Z,5.63
2018-08-21T09:23:39.592Z,5.63
2018-08-21T09:24:39.606Z,5.63
2018-08-21T09:25:39.601Z,5.63
2018-08-21T09:26:39.777Z,5.63
2018-08-21T09:27:39.679Z,5.63
2018-08-21T09:28:39.649Z,11.25
2018-08-21T09:29:39.701Z,11.25
2018-08-21T09:30:39.675Z,11.25
2018-08-21T09:31:39.689Z,11.25
2018-08-21T09:32:39.849Z,16.88
2018-08-21T09:33:39.707Z,16.88
2018-08-21T09:34:39.729Z,22.50
2018-08-21T09:35:39.729Z,22.50
2018-08-21T09:36:39.755Z,22.50
2018-08-21T09:37:39.915Z,28.13
2018-08-21T09:38:39.751Z,28.13
2018-08-21T09:39:39.781Z,33.75
2018-08-21T09:40:39.792Z,28.13
2018-08-21T09:41:39.807Z,28.13
2018-08-21T09:42:40.067Z,28.13
2018-08-21T09:43:39.838Z,28.13
2018-08-21T09:44:39.846Z,33.75
2018-08-21T09:45:39.858Z,33.75
2018-08-21T09:46:39.868Z,33.75
2018-08-21T09:47:40.044Z,39.38
2018-08-21T09:48:39.892Z,39.38
2018-08-21T09:49:39.899Z,39.38
2018-08-21T09:50:39.897Z,45.00
2018-08-21T09:51:39.958Z,45.00
2018-08-21T09:52:40.099Z,50.63
2018-08-21T09:53:39.949Z,56.25
2018-08-21T09:54:39.942Z,61.88
2018-08-21T09:55:39.973Z,67.50
2018-08-21T09:56:39.984Z,73.13
2018-08-21T09:57:40.149Z,73.13
2018-08-21T09:58:40.011Z,84.38
2018-08-21T09:59:40.021Z,95.63
2018-08-21T10:00:40.032Z,90.00
2018-08-21T10:01:40.045Z,101.25
2018-08-21T10:02:40.192Z,95.63
2018-08-21T10:03:40.071Z,101.25
2018-08-21T10:04:40.083Z,101.25
2018-08-21T10:05:40.077Z,101.25
2018-08-21T10:06:40.147Z,90.00
2018-08-21T10:07:40.269Z,90.00
2018-08-21T10:08:40.132Z,95.63
2018-08-21T10:09:40.151Z,95.63
2018-08-21T10:10:40.158Z,95.63
2018-08-21T10:11:40.175Z,101.25
2018-08-21T10:12:40.436Z,101.25
2018-08-21T10:13:40.307Z,106.88
2018-08-21T10:14:40.209Z,112.50
2018-08-21T10:15:40.209Z,118.13
2018-08-21T10:16:40.241Z,123.75
2018-08-21T10:17:40.398Z,135.00
2018-08-21T10:18:40.258Z,146.25
2018-08-21T10:19:40.299Z,157.50
2018-08-21T10:20:40.287Z,168.75
2018-08-21T10:21:40.356Z,185.63
2018-08-21T10:22:40.462Z,191.25
2018-08-21T10:23:40.321Z,208.13
2018-08-21T10:24:40.333Z,281.25
2018-08-21T10:25:40.322Z,331.88
2018-08-21T10:26:40.356Z,343.13
2018-08-21T10:27:40.519Z,343.13
2018-08-21T10:28:40.386Z,348.75
2018-08-21T10:29:40.397Z,354.38
2018-08-21T10:30:40.420Z,354.38
2018-08-21T10:31:40.410Z,348.75
2018-08-21T10:32:40.585Z,337.50
2018-08-21T10:33:40.647Z,292.50
2018-08-21T10:34:40.473Z,275.63
2018-08-21T10:35:40.477Z,230.63
2018-08-21T10:36:40.491Z,191.25
2018-08-21T10:37:40.758Z,163.13
2018-08-21T10:38:40.526Z,157.50
2018-08-21T10:39:40.538Z,151.88
2018-08-21T10:40:40.548Z,151.88
2018-08-21T10:41:40.605Z,151.88
2018-08-21T10:42:40.578Z,151.88
2018-08-21T10:43:40.743Z,151.88
2018-08-21T10:44:40.599Z,146.25
2018-08-21T10:45:40.620Z,140.63
2018-08-21T10:46:40.637Z,140.63
2018-08-21T10:47:40.640Z,140.63
2018-08-21T10:48:40.654Z,146.25
2018-08-21T10:49:40.774Z,146.25
2018-08-21T10:50:40.685Z,146.25
2018-08-21T10:51:40.735Z,151.88
2018-08-21T10:52:40.901Z,151.88
2018-08-21T10:53:40.721Z,168.75
2018-08-21T10:54:40.988Z,208.13
2018-08-21T10:55:40.759Z,236.25
2018-08-21T10:56:40.761Z,241.88
2018-08-21T10:57:40.773Z,258.75
2018-08-21T10:58:40.802Z,303.75
2018-08-21T10:59:41.059Z,354.38
2018-08-21T11:00:40.822Z,343.13
2018-08-21T11:01:40.836Z,337.50
2018-08-21T11:02:40.845Z,320.63
2018-08-21T11:03:40.863Z,298.13
2018-08-21T11:04:40.976Z,298.13
2018-08-21T11:05:40.892Z,309.38
2018-08-21T11:06:40.903Z,315.00
2018-08-21T11:07:40.921Z,315.00
2018-08-21T11:08:40.930Z,241.88
2018-08-21T11:09:41.195Z,292.50
2018-08-21T11:10:40.960Z,264.38
2018-08-21T11:11:40.970Z,298.13
2018-08-21T11:12:40.987Z,343.13
2018-08-21T11:13:41.006Z,348.75
2018-08-21T11:14:41.165Z,399.38
2018-08-21T11:15:41.027Z,365.63
2018-08-21T11:16:41.082Z,444.38
2018-08-21T11:17:41.058Z,450.00
2018-08-21T11:18:41.084Z,461.25
2018-08-21T11:19:41.338Z,466.88
2018-08-21T11:20:41.110Z,478.13
2018-08-21T11:21:41.121Z,483.75
2018-08-21T11:22:41.132Z,483.75
2018-08-21T11:23:41.144Z,483.75
2018-08-21T11:24:41.319Z,483.75
2018-08-21T11:25:41.164Z,478.13
2018-08-21T11:26:41.193Z,478.13
2018-08-21T11:27:41.192Z,466.88
2018-08-21T11:28:41.227Z,450.00
2018-08-21T11:29:41.507Z,427.50
2018-08-21T11:30:41.257Z,416.25
2018-08-21T11:31:41.272Z,399.38
2018-08-21T11:32:41.264Z,399.38
2018-08-21T11:33:41.303Z,399.38
2018-08-21T11:34:41.491Z,410.63
2018-08-21T11:35:41.324Z,427.50
2018-08-21T11:36:41.353Z,455.63
2018-08-21T11:37:41.346Z,483.75
2018-08-21T11:38:41.380Z,506.25
2018-08-21T11:39:41.543Z,511.88
2018-08-21T11:40:41.419Z,523.13
2018-08-21T11:41:41.424Z,528.75
2018-08-21T11:42:41.449Z,534.38
2018-08-21T11:43:41.446Z,534.38
2018-08-21T11:44:41.724Z,540.00
2018-08-21T11:45:41.474Z,540.00
2018-08-21T11:46:41.507Z,545.63
2018-08-21T11:47:41.523Z,545.63
2018-08-21T11:48:41.546Z,545.63
2018-08-21T11:49:41.560Z,551.25
2018-08-21T11:50:41.729Z,556.88
2018-08-21T11:51:41.601Z,556.88
2018-08-21T11:52:41.606Z,556.88
2018-08-21T11:53:41.622Z,556.88
2018-08-21T11:54:41.638Z,562.50
2018-08-21T11:55:41.655Z,562.50
2018-08-21T11:56:41.825Z,568.13
2018-08-21T11:57:41.673Z,568.13
2018-08-21T11:58:41.712Z,573.75
2018-08-21T11:59:41.709Z,573.75
2018-08-21T12:00:41.740Z,579.38
2018-08-21T12:01:41.989Z,590.63
2018-08-21T12:02:41.775Z,601.88
2018-08-21T12:03:41.793Z,618.75
2018-08-21T12:04:41.806Z,624.38
2018-08-21T12:05:41.827Z,635.63
2018-08-21T12:06:41.993Z,652.50
2018-08-21T12:07:41.863Z,658.13
2018-08-21T12:08:41.881Z,675.00
2018-08-21T12:09:41.896Z,691.88
2018-08-21T12:10:41.910Z,703.13
2018-08-21T12:11:42.076Z,714.38
2018-08-21T12:12:41.948Z,725.63
2018-08-21T12:13:41.968Z,725.63
2018-08-21T12:14:42.023Z,736.88
2018-08-21T12:15:42.003Z,753.75
2018-08-21T12:16:42.245Z,759.38
2018-08-21T12:17:42.020Z,776.25
2018-08-21T12:18:42.053Z,787.50
2018-08-21T12:19:42.056Z,810.00
2018-08-21T12:20:42.091Z,815.63
2018-08-21T12:21:42.363Z,826.88
2018-08-21T12:22:42.122Z,849.38
2018-08-21T12:23:42.204Z,871.88
2018-08-21T12:24:42.165Z,894.38
2018-08-21T12:25:42.177Z,939.38
2018-08-21T12:26:42.325Z,984.38
2018-08-21T12:27:42.218Z,1051.88
2018-08-21T12:28:42.237Z,1113.75
2018-08-21T12:29:42.256Z,1130.63
2018-08-21T12:30:42.249Z,1136.25
2018-08-21T12:31:42.442Z,1141.88
2018-08-21T12:32:42.289Z,1186.88
2018-08-21T12:33:42.324Z,1338.75
2018-08-21T12:34:42.343Z,1535.63
2018-08-21T12:35:42.361Z,1428.75
2018-08-21T12:36:42.466Z,1513.13
2018-08-21T12:37:42.396Z,1912.50
2018-08-21T12:38:42.438Z,1968.75
2018-08-21T12:39:42.418Z,1845.00
2018-08-21T12:40:42.454Z,1811.25
2018-08-21T12:41:42.626Z,1811.25
2018-08-21T12:42:42.494Z,1721.25
2018-08-21T12:43:42.513Z,1839.38
2018-08-21T12:44:42.515Z,1996.88
2018-08-21T12:45:42.558Z,2193.75
2018-08-21T12:46:42.723Z,2373.75
2018-08-21T12:47:42.573Z,2458.13
2018-08-21T12:48:42.683Z,2458.13
2018-08-21T12:49:43.172Z,2345.63
2018-08-21T12:50:42.645Z,2441.25
2018-08-21T12:51:42.821Z,2340.00
2018-08-21T12:52:42.695Z,2171.25
2018-08-21T12:53:42.773Z,2210.63
2018-08-21T12:54:42.732Z,2446.88
2018-08-21T12:55:42.729Z,2745.00
2018-08-21T12:56:43.041Z,2604.38
2018-08-21T12:57:42.788Z,2345.63
2018-08-21T12:58:42.824Z,2390.63
2018-08-21T12:59:42.815Z,2340.00
2018-08-21T13:00:42.848Z,2362.50
2018-08-21T13:01:43.008Z,2491.88
2018-08-21T13:02:42.894Z,2722.50
2018-08-21T13:03:42.927Z,2846.25
2018-08-21T13:04:42.936Z,2874.38